createdAt,value
2023-04-17T00:01:38.632Z,13.23
2023-04-17T00:04:11.152Z,16.73
2023-04-17T00:06:39.287Z,12.85
2023-04-17T00:09:06.119Z,13.75
2023-04-17T00:11:32.875Z,16.60
2023-04-17T00:13:59.734Z,13.77
2023-04-17T00:16:27.347Z,14.00
2023-04-17T00:18:55.459Z,13.85
2023-04-17T00:21:22.477Z,12.68
2023-04-17T00:23:49.457Z,12.52
2023-04-17T00:26:16.635Z,15.38
2023-04-17T00:28:43.571Z,14.48
2023-04-17T00:31:10.373Z,12.65
2023-04-17T00:33:37.310Z,15.23
2023-04-17T00:36:04.411Z,13.40
2023-04-17T00:38:31.095Z,14.10
2023-04-17T00:40:57.785Z,14.43
2023-04-17T00:43:24.489Z,14.00
2023-04-17T00:45:52.067Z,16.15
2023-04-17T00:48:19.436Z,13.65
2023-04-17T00:50:47.403Z,16.10
2023-04-17T00:53:14.374Z,16.00
2023-04-17T00:55:46.974Z,13.25
2023-04-17T00:58:14.127Z,15.82
2023-04-17T01:00:41.187Z,14.88
2023-04-17T01:03:08.866Z,14.30
2023-04-17T01:05:38.228Z,14.43
2023-04-17T01:08:05.139Z,14.85
2023-04-17T01:10:31.863Z,14.52
2023-04-17T01:13:06.658Z,12.80
2023-04-17T01:15:36.237Z,11.18
2023-04-17T01:18:04.705Z,13.60
2023-04-17T01:20:32.358Z,12.07
2023-04-17T01:22:59.882Z,12.82
2023-04-17T01:25:28.233Z,12.25
2023-04-17T01:27:56.754Z,10.38
2023-04-17T01:30:24.049Z,12.10
2023-04-17T01:33:09.411Z,14.95
2023-04-17T01:35:36.673Z,10.82
2023-04-17T01:38:03.534Z,11.77
2023-04-17T01:40:30.378Z,11.77
2023-04-17T01:42:58.030Z,14.40
2023-04-17T01:45:24.900Z,13.07
2023-04-17T01:47:51.689Z,14.77
2023-04-17T01:50:18.580Z,15.07
2023-04-17T01:52:45.498Z,13.13
2023-04-17T01:55:12.362Z,13.43
2023-04-17T01:57:39.186Z,13.55
2023-04-17T02:00:10.646Z,18.02
2023-04-17T02:02:42.975Z,15.32
2023-04-17T02:05:10.006Z,11.82
2023-04-17T02:07:36.851Z,13.63
2023-04-17T02:10:03.938Z,12.65
2023-04-17T02:12:30.605Z,13.77
2023-04-17T02:15:01.016Z,14.75
2023-04-17T02:17:27.858Z,13.00
2023-04-17T02:19:54.592Z,16.05
2023-04-17T02:22:22.796Z,14.15
2023-04-17T02:24:49.511Z,13.90
2023-04-17T02:27:17.624Z,16.33
2023-04-17T02:29:44.398Z,18.15
2023-04-17T02:32:11.291Z,17.15
2023-04-17T02:34:38.432Z,17.85
2023-04-17T02:37:05.814Z,16.73
2023-04-17T02:39:33.897Z,15.10
2023-04-17T02:42:03.106Z,18.52
2023-04-17T02:44:30.240Z,17.15
2023-04-17T02:46:57.088Z,18.92
2023-04-17T02:49:24.703Z,14.60
2023-04-17T02:51:51.504Z,17.63
2023-04-17T02:54:18.264Z,16.25
2023-04-17T02:56:45.515Z,17.05
2023-04-17T02:59:13.896Z,17.80
2023-04-17T03:01:41.061Z,16.65
2023-04-17T03:04:08.129Z,17.95
2023-04-17T03:06:35.036Z,17.95
2023-04-17T03:09:03.693Z,18.50
2023-04-17T03:11:30.772Z,19.13
2023-04-17T03:13:57.436Z,17.02
2023-04-17T03:16:24.267Z,17.27
2023-04-17T03:18:52.423Z,15.77
2023-04-17T03:21:20.890Z,15.68
2023-04-17T03:23:49.293Z,14.55
2023-04-17T03:26:16.994Z,19.08
2023-04-17T03:28:43.754Z,18.00
2023-04-17T03:31:10.525Z,16.13
2023-04-17T03:33:38.668Z,21.10
2023-04-17T03:36:06.096Z,17.98
2023-04-17T03:38:35.783Z,16.17
2023-04-17T03:41:04.533Z,19.38
2023-04-17T03:43:31.278Z,16.83
2023-04-17T03:45:57.993Z,15.73
2023-04-17T03:48:24.839Z,16.17
2023-04-17T03:50:52.518Z,15.43
2023-04-17T03:53:19.798Z,17.55
2023-04-17T03:55:47.501Z,15.57
2023-04-17T03:58:23.395Z,21.77
2023-04-17T04:00:55.224Z,18.50
2023-04-17T04:03:25.709Z,17.10
2023-04-17T04:05:52.980Z,17.13
2023-04-17T04:08:19.916Z,16.02
2023-04-17T04:10:51.243Z,17.23
2023-04-17T04:13:23.195Z,18.63
2023-04-17T04:15:55.231Z,16.92
2023-04-17T04:18:25.228Z,15.73
2023-04-17T04:20:52.474Z,16.52
2023-04-17T04:23:27.920Z,17.88
2023-04-17T04:25:57.842Z,19.02
2023-04-17T04:28:33.630Z,18.90
2023-04-17T04:31:02.584Z,17.05
2023-04-17T04:33:35.252Z,15.90
2023-04-17T04:36:02.849Z,16.58
2023-04-17T04:38:32.516Z,18.55
2023-04-17T04:41:10.148Z,18.13
2023-04-17T04:43:37.901Z,18.70
2023-04-17T04:46:06.404Z,18.77
2023-04-17T04:48:39.307Z,18.58
2023-04-17T04:51:07.441Z,19.83
2023-04-17T04:53:34.376Z,18.70
2023-04-17T04:56:01.651Z,16.75
2023-04-17T04:58:30.404Z,19.23
2023-04-17T05:01:01.042Z,24.45
2023-04-17T05:03:34.216Z,17.98
2023-04-17T05:06:02.780Z,17.38
2023-04-17T05:08:37.744Z,16.95
2023-04-17T05:11:09.842Z,18.65
2023-04-17T05:13:36.891Z,19.40
2023-04-17T05:16:03.696Z,17.25
2023-04-17T05:18:31.175Z,18.73
2023-04-17T05:20:58.430Z,17.30
2023-04-17T05:23:28.261Z,16.15
2023-04-17T05:25:54.929Z,18.33
2023-04-17T05:28:21.696Z,14.65
2023-04-17T05:30:52.763Z,18.52
2023-04-17T05:33:27.414Z,16.83
2023-04-17T05:35:57.429Z,15.43
2023-04-17T05:38:24.527Z,15.32
2023-04-17T05:40:53.143Z,20.55
2023-04-17T05:43:19.906Z,18.52
2023-04-17T05:45:47.585Z,16.23
2023-04-17T05:48:14.542Z,17.98
2023-04-17T05:50:41.957Z,17.13
2023-04-17T05:53:08.748Z,15.38
2023-04-17T05:55:41.592Z,14.50
2023-04-17T05:58:23.277Z,19.90
2023-04-17T06:00:53.574Z,15.93
2023-04-17T06:03:21.424Z,19.55
2023-04-17T06:05:54.238Z,16.88
2023-04-17T06:08:21.524Z,19.80
2023-04-17T06:10:50.093Z,19.55
2023-04-17T06:13:16.776Z,18.15
2023-04-17T06:15:46.785Z,18.35
2023-04-17T06:18:16.215Z,15.90
2023-04-17T06:20:43.666Z,17.95
2023-04-17T06:23:10.628Z,21.45
2023-04-17T06:25:37.368Z,22.30
2023-04-17T06:28:04.263Z,19.27
2023-04-17T06:30:30.925Z,16.52
2023-04-17T06:32:58.086Z,16.60
2023-04-17T06:35:25.179Z,17.63
2023-04-17T06:38:01.070Z,18.73
2023-04-17T06:40:28.023Z,22.02
2023-04-17T06:42:54.762Z,13.95
2023-04-17T06:45:24.805Z,16.23
2023-04-17T06:47:51.629Z,16.15
2023-04-17T06:50:18.590Z,14.68
2023-04-17T06:52:45.375Z,21.58
2023-04-17T06:55:12.023Z,16.23
2023-04-17T06:57:39.112Z,16.00
2023-04-17T07:00:06.687Z,15.38
2023-04-17T07:02:33.619Z,15.98
2023-04-17T07:05:00.714Z,18.23
2023-04-17T07:07:29.965Z,17.48
2023-04-17T07:09:57.062Z,17.83
2023-04-17T07:12:23.763Z,17.02
2023-04-17T07:14:50.709Z,15.57
2023-04-17T07:17:17.777Z,16.38
2023-04-17T07:19:44.412Z,16.75
2023-04-17T07:22:11.089Z,18.13
2023-04-17T07:24:37.817Z,17.92
2023-04-17T07:27:05.160Z,17.85
2023-04-17T07:29:31.973Z,16.35
2023-04-17T07:31:58.887Z,15.27
2023-04-17T07:34:25.672Z,17.92
2023-04-17T07:36:52.870Z,15.00
2023-04-17T07:39:19.997Z,18.25
2023-04-17T07:41:46.746Z,17.20
2023-04-17T07:44:13.449Z,17.00
2023-04-17T07:46:41.244Z,17.90
2023-04-17T07:49:11.392Z,15.63
2023-04-17T07:51:41.204Z,19.15
2023-04-17T07:54:08.441Z,16.02
2023-04-17T07:56:36.568Z,16.45
2023-04-17T07:59:03.461Z,17.40
2023-04-17T08:01:32.147Z,13.88
2023-04-17T08:03:59.727Z,14.60
2023-04-17T08:06:27.289Z,14.05
2023-04-17T08:08:54.203Z,14.70
2023-04-17T08:11:21.349Z,13.40
2023-04-17T08:13:48.071Z,12.48
2023-04-17T08:16:14.866Z,14.90
2023-04-17T08:18:41.980Z,13.70
2023-04-17T08:21:09.192Z,12.07
2023-04-17T08:23:35.938Z,12.00
2023-04-17T08:26:02.679Z,9.38
2023-04-17T08:28:29.754Z,10.55
2023-04-17T08:30:57.086Z,13.40
2023-04-17T08:33:24.010Z,12.45
2023-04-17T08:35:51.508Z,12.70
2023-04-17T08:38:18.184Z,10.55
2023-04-17T08:40:51.772Z,11.60
2023-04-17T08:43:20.886Z,11.65
2023-04-17T08:45:53.780Z,11.70
2023-04-17T08:48:24.742Z,11.25
2023-04-17T08:50:53.282Z,10.40
2023-04-17T08:53:21.021Z,9.30
2023-04-17T08:55:48.538Z,10.15
2023-04-17T08:58:15.512Z,9.55
2023-04-17T09:00:44.228Z,8.77
2023-04-17T09:03:13.425Z,7.22
2023-04-17T09:05:43.403Z,6.90
2023-04-17T09:08:24.106Z,5.55
2023-04-17T09:10:52.721Z,4.85
2023-04-17T09:13:22.171Z,6.35
2023-04-17T09:16:05.161Z,7.00
2023-04-17T09:18:33.053Z,9.15
2023-04-17T09:21:01.089Z,8.82
2023-04-17T09:23:29.806Z,8.68
2023-04-17T09:26:11.054Z,10.65
2023-04-17T09:28:41.439Z,9.95
2023-04-17T09:31:20.294Z,6.43
2023-04-17T09:33:56.697Z,9.55
2023-04-17T09:36:23.640Z,7.70
2023-04-17T09:38:51.497Z,8.05
2023-04-17T09:41:29.026Z,7.82
2023-04-17T09:44:01.021Z,7.00
2023-04-17T09:46:31.664Z,7.75
2023-04-17T09:49:27.439Z,8.23
2023-04-17T09:51:55.238Z,7.28
2023-04-17T09:54:23.459Z,7.00
2023-04-17T09:56:52.234Z,5.07
2023-04-17T09:59:19.090Z,6.13
2023-04-17T10:01:45.955Z,4.85
2023-04-17T10:04:13.596Z,3.58
2023-04-17T10:06:41.596Z,5.25
2023-04-17T10:09:08.772Z,5.72
2023-04-17T10:11:41.243Z,5.38
2023-04-17T10:14:29.999Z,3.92
2023-04-17T10:16:57.136Z,4.13
2023-04-17T10:19:32.476Z,4.50
2023-04-17T10:22:20.437Z,5.50
2023-04-17T10:24:51.937Z,4.07
2023-04-17T10:29:54.386Z,4.18
2023-04-17T10:32:24.075Z,3.25
2023-04-17T10:34:52.048Z,4.60
2023-04-17T10:37:19.329Z,3.78
2023-04-17T10:39:55.696Z,2.85
2023-04-17T10:42:24.017Z,4.45
2023-04-17T10:44:51.834Z,3.05
2023-04-17T10:47:22.452Z,2.95
2023-04-17T10:49:52.521Z,4.43
2023-04-17T10:52:45.015Z,3.95
2023-04-17T10:55:17.102Z,3.78
2023-04-17T10:57:57.854Z,4.57
2023-04-17T11:00:38.374Z,4.50
2023-04-17T11:03:06.755Z,3.80
2023-04-17T11:05:35.771Z,4.65
2023-04-17T11:08:02.824Z,4.47
2023-04-17T11:10:29.620Z,3.38
2023-04-17T11:12:56.709Z,3.75
2023-04-17T11:15:31.398Z,4.05
2023-04-17T11:17:59.407Z,3.53
2023-04-17T11:20:31.964Z,3.25
2023-04-17T11:23:03.207Z,3.30
2023-04-17T11:25:31.381Z,2.78
2023-04-17T11:27:58.970Z,2.63
2023-04-17T11:30:28.384Z,3.45
2023-04-17T11:32:57.849Z,3.55
2023-04-17T11:35:32.751Z,3.75
2023-04-17T11:38:22.771Z,3.30
2023-04-17T11:41:00.833Z,3.88
2023-04-17T11:43:29.369Z,3.83
2023-04-17T11:45:58.197Z,5.35
2023-04-17T11:48:27.349Z,5.47
2023-04-17T11:51:01.049Z,4.28
2023-04-17T11:53:28.600Z,4.35
2023-04-17T11:56:17.865Z,4.05
2023-04-17T11:58:55.577Z,3.80
2023-04-17T12:01:24.927Z,2.70
2023-04-17T12:03:55.424Z,3.80
2023-04-17T12:06:22.966Z,2.83
2023-04-17T12:08:53.692Z,2.78
2023-04-17T12:11:29.348Z,3.10
2023-04-17T12:13:56.673Z,4.07
2023-04-17T12:16:25.598Z,4.70
2023-04-17T12:18:53.137Z,2.95
2023-04-17T12:21:20.735Z,2.58
2023-04-17T12:23:47.631Z,4.00
2023-04-17T12:26:14.455Z,6.30
2023-04-17T12:28:41.106Z,3.25
2023-04-17T12:31:08.082Z,4.35
2023-04-17T12:33:35.335Z,4.25
2023-04-17T12:36:05.920Z,6.03
2023-04-17T12:38:32.610Z,5.75
2023-04-17T12:40:59.416Z,3.25
2023-04-17T12:43:26.159Z,3.55
2023-04-17T12:45:53.169Z,2.90
2023-04-17T12:48:20.002Z,3.13
2023-04-17T12:50:46.667Z,3.10
2023-04-17T12:53:14.931Z,3.72
2023-04-17T12:55:43.741Z,2.35
2023-04-17T12:58:12.011Z,2.80
2023-04-17T13:00:40.690Z,3.08
2023-04-17T13:03:07.757Z,2.63
2023-04-17T13:05:34.709Z,3.45
2023-04-17T13:08:01.713Z,3.17
2023-04-17T13:10:28.582Z,2.40
2023-04-17T13:12:55.631Z,2.97
2023-04-17T13:15:22.418Z,4.45
2023-04-17T13:17:49.206Z,3.75
2023-04-17T13:20:16.190Z,4.30
2023-04-17T13:22:42.933Z,3.05
2023-04-17T13:25:10.015Z,3.65
2023-04-17T13:27:37.317Z,3.97
2023-04-17T13:30:04.342Z,2.90
2023-04-17T13:32:31.201Z,3.47
2023-04-17T13:34:58.870Z,4.07
2023-04-17T13:37:25.911Z,3.95
2023-04-17T13:39:52.858Z,4.00
2023-04-17T13:42:20.469Z,3.60
2023-04-17T13:44:47.234Z,3.50
2023-04-17T13:47:13.951Z,3.28
2023-04-17T13:49:40.844Z,3.42
2023-04-17T13:52:07.690Z,4.55
2023-04-17T13:54:34.455Z,3.67
2023-04-17T13:57:01.524Z,3.97
2023-04-17T13:59:28.370Z,3.15
2023-04-17T14:01:55.415Z,3.50
2023-04-17T14:04:22.540Z,3.72
2023-04-17T14:06:50.931Z,3.92
2023-04-17T14:09:17.897Z,3.83
2023-04-17T14:11:44.806Z,5.22
2023-04-17T14:14:12.831Z,4.63
2023-04-17T14:16:43.524Z,4.10
2023-04-17T14:19:14.127Z,4.22
2023-04-17T14:21:41.769Z,3.90
2023-04-17T14:24:08.897Z,3.83
2023-04-17T14:26:37.303Z,2.97
2023-04-17T14:29:04.567Z,4.00
2023-04-17T14:31:31.826Z,3.58
2023-04-17T14:33:58.630Z,3.58
2023-04-17T14:36:26.084Z,3.40
2023-04-17T14:38:54.203Z,4.20
2023-04-17T14:41:21.184Z,3.05
2023-04-17T14:43:47.958Z,5.30
2023-04-17T14:46:14.813Z,3.45
2023-04-17T14:51:15.230Z,3.28
2023-04-17T14:53:42.017Z,3.30
2023-04-17T14:56:09.542Z,3.28
2023-04-17T14:58:36.475Z,2.50
2023-04-17T15:01:03.709Z,3.80
2023-04-17T15:03:32.225Z,2.33
2023-04-17T15:06:01.513Z,3.25
2023-04-17T15:08:28.627Z,3.22
2023-04-17T15:10:55.439Z,2.90
2023-04-17T15:13:22.202Z,3.70
2023-04-17T15:15:48.877Z,3.50
2023-04-17T15:18:15.596Z,3.20
2023-04-17T15:20:42.294Z,3.58
2023-04-17T15:23:09.033Z,4.78
2023-04-17T15:25:35.715Z,3.53
2023-04-17T15:28:02.688Z,3.42
2023-04-17T15:30:29.476Z,2.50
2023-04-17T15:32:56.208Z,2.15
2023-04-17T15:35:22.933Z,2.67
2023-04-17T15:37:49.779Z,2.95
2023-04-17T15:40:16.671Z,4.40
2023-04-17T15:42:43.652Z,1.95
2023-04-17T15:45:10.722Z,3.42
2023-04-17T15:47:37.474Z,3.65
2023-04-17T15:50:06.170Z,2.45
2023-04-17T15:52:33.113Z,3.97
2023-04-17T15:54:59.973Z,2.55
2023-04-17T15:57:26.743Z,3.08
2023-04-17T15:59:53.468Z,3.13
2023-04-17T16:02:21.549Z,1.65
2023-04-17T16:04:48.375Z,1.70
2023-04-17T16:07:16.371Z,2.10
2023-04-17T16:09:44.586Z,4.97
2023-04-17T16:12:11.695Z,3.47
2023-04-17T16:14:38.729Z,1.98
2023-04-17T16:17:05.774Z,3.78
2023-04-17T16:19:32.718Z,4.35
2023-04-17T16:21:59.708Z,4.07
2023-04-17T16:24:26.706Z,3.72
2023-04-17T16:26:55.340Z,2.88
2023-04-17T16:29:22.275Z,5.65
2023-04-17T16:31:49.022Z,4.55
2023-04-17T16:34:15.908Z,5.22
2023-04-17T16:36:45.408Z,9.57
2023-04-17T16:39:12.857Z,6.85
2023-04-17T16:41:40.154Z,3.03
2023-04-17T16:44:06.975Z,2.35
2023-04-17T16:46:45.648Z,5.80
2023-04-17T16:49:20.476Z,4.57
2023-04-17T16:51:47.451Z,4.85
2023-04-17T16:54:15.302Z,4.82
2023-04-17T16:56:42.817Z,4.35
2023-04-17T16:59:09.768Z,4.07
2023-04-17T17:01:36.697Z,3.28
2023-04-17T17:04:03.873Z,3.55
2023-04-17T17:06:31.126Z,4.00
2023-04-17T17:08:59.704Z,2.83
2023-04-17T17:11:26.636Z,4.18
2023-04-17T17:13:53.433Z,3.63
2023-04-17T17:16:21.155Z,2.55
2023-04-17T17:18:48.497Z,3.13
2023-04-17T17:21:15.559Z,2.58
2023-04-17T17:23:42.526Z,2.78
2023-04-17T17:26:09.311Z,2.60
2023-04-17T17:28:36.220Z,3.33
2023-04-17T17:31:05.064Z,2.03
2023-04-17T17:33:32.228Z,3.05
2023-04-17T17:36:01.875Z,3.10
2023-04-17T17:38:30.541Z,2.00
2023-04-17T17:40:59.380Z,2.40
2023-04-17T17:43:28.115Z,2.30
2023-04-17T17:45:55.263Z,2.53
2023-04-17T17:48:22.118Z,2.88
2023-04-17T17:50:52.706Z,2.47
2023-04-17T17:53:21.411Z,3.03
2023-04-17T17:55:53.958Z,2.80
2023-04-17T17:58:22.377Z,2.17
2023-04-17T18:00:50.117Z,2.78
2023-04-17T18:03:17.722Z,2.72
2023-04-17T18:05:46.377Z,3.75
2023-04-17T18:08:13.692Z,3.53
2023-04-17T18:10:40.468Z,3.03
2023-04-17T18:13:07.719Z,3.45
2023-04-17T18:15:35.496Z,5.43
2023-04-17T18:18:02.432Z,6.70
2023-04-17T18:20:29.186Z,5.30
2023-04-17T18:22:56.014Z,6.72
2023-04-17T18:25:22.758Z,6.07
2023-04-17T18:27:49.598Z,4.97
2023-04-17T18:30:16.400Z,5.28
2023-04-17T18:32:43.125Z,6.82
2023-04-17T18:35:10.221Z,7.40
2023-04-17T18:37:37.564Z,4.88
2023-04-17T18:40:07.170Z,4.50
2023-04-17T18:42:34.102Z,4.10
2023-04-17T18:45:00.876Z,4.20
2023-04-17T18:47:28.484Z,3.72
2023-04-17T18:49:55.276Z,3.90
2023-04-17T18:52:22.117Z,4.88
2023-04-17T18:54:48.980Z,4.47
2023-04-17T18:57:15.712Z,3.92
2023-04-17T18:59:43.361Z,5.25
2023-04-17T19:02:10.564Z,4.35
2023-04-17T19:04:37.387Z,3.53
2023-04-17T19:07:04.206Z,4.22
2023-04-17T19:09:30.978Z,4.85
2023-04-17T19:11:58.559Z,5.28
2023-04-17T19:14:25.541Z,6.15
2023-04-17T19:16:55.878Z,4.45
2023-04-17T19:19:22.617Z,6.25
2023-04-17T19:21:49.502Z,5.22
2023-04-17T19:24:16.242Z,5.88
2023-04-17T19:26:43.492Z,5.85
2023-04-17T19:29:10.463Z,6.25
2023-04-17T19:31:37.939Z,5.57
2023-04-17T19:34:06.880Z,5.47
2023-04-17T19:36:33.962Z,5.45
2023-04-17T19:39:00.857Z,5.72
2023-04-17T19:41:28.454Z,6.57
2023-04-17T19:43:55.629Z,6.07
2023-04-17T19:46:23.448Z,5.80
2023-04-17T19:48:51.009Z,4.68
2023-04-17T19:51:18.053Z,6.03
2023-04-17T19:53:45.394Z,4.68
2023-04-17T19:56:12.724Z,5.22
2023-04-17T19:58:42.344Z,5.60
2023-04-17T20:01:09.324Z,5.50
2023-04-17T20:03:38.284Z,5.65
2023-04-17T20:06:05.564Z,6.07
2023-04-17T20:08:32.445Z,5.68
2023-04-17T20:10:59.602Z,6.82
2023-04-17T20:13:27.855Z,7.10
2023-04-17T20:15:54.564Z,6.75
2023-04-17T20:18:21.331Z,5.63
2023-04-17T20:20:48.051Z,6.78
2023-04-17T20:23:14.882Z,6.07
2023-04-17T20:25:41.642Z,5.50
2023-04-17T20:28:09.606Z,6.43
2023-04-17T20:30:36.380Z,6.63
2023-04-17T20:33:03.516Z,6.60
2023-04-17T20:35:30.549Z,5.68
2023-04-17T20:37:57.355Z,6.03
2023-04-17T20:40:24.142Z,8.25
2023-04-17T20:42:51.081Z,6.43
2023-04-17T20:45:17.859Z,6.90
2023-04-17T20:47:56.440Z,7.80
2023-04-17T20:50:24.589Z,6.88
2023-04-17T20:52:51.376Z,7.07
2023-04-17T20:55:19.822Z,8.82
2023-04-17T20:57:47.425Z,6.50
2023-04-17T21:00:14.883Z,7.72
2023-04-17T21:02:42.179Z,6.78
2023-04-17T21:05:09.786Z,7.38
2023-04-17T21:07:37.733Z,8.35
2023-04-17T21:10:05.279Z,7.60
2023-04-17T21:12:32.999Z,7.22
2023-04-17T21:15:00.038Z,7.88
2023-04-17T21:17:26.789Z,6.47
2023-04-17T21:19:55.783Z,7.75
2023-04-17T21:22:22.821Z,8.57
2023-04-17T21:24:49.725Z,8.93
2023-04-17T21:27:16.697Z,7.35
2023-04-17T21:29:43.661Z,6.82
2023-04-17T21:32:10.343Z,8.98
2023-04-17T21:34:37.127Z,7.22
2023-04-17T21:37:05.063Z,8.80
2023-04-17T21:39:33.254Z,6.85
2023-04-17T21:42:00.609Z,7.90
2023-04-17T21:44:27.595Z,7.68
2023-04-17T21:46:54.476Z,7.00
2023-04-17T21:49:23.490Z,8.35
2023-04-17T21:51:50.496Z,7.68
2023-04-17T21:54:17.228Z,8.52
2023-04-17T21:56:44.018Z,9.23
2023-04-17T21:59:10.870Z,8.43
2023-04-17T22:01:37.679Z,7.40
2023-04-17T22:04:04.671Z,7.63
2023-04-17T22:06:35.747Z,9.13
2023-04-17T22:09:02.821Z,8.35
2023-04-17T22:11:29.598Z,7.35
2023-04-17T22:13:56.262Z,8.27
2023-04-17T22:16:23.016Z,8.25
2023-04-17T22:18:49.744Z,8.65
2023-04-17T22:21:16.433Z,9.15
2023-04-17T22:23:43.119Z,8.80
2023-04-17T22:26:09.861Z,7.95
2023-04-17T22:28:37.085Z,9.13
2023-04-17T22:31:03.887Z,9.02
2023-04-17T22:33:30.864Z,7.90
2023-04-17T22:35:57.640Z,8.43
2023-04-17T22:38:24.351Z,8.18
2023-04-17T22:40:51.174Z,8.77
2023-04-17T22:43:17.878Z,8.43
2023-04-17T22:45:44.654Z,9.90
2023-04-17T22:48:12.096Z,8.43
2023-04-17T22:50:39.255Z,8.18
2023-04-17T22:53:06.135Z,10.57
2023-04-17T22:55:33.327Z,9.80
2023-04-17T22:58:01.594Z,9.20
2023-04-17T23:00:30.674Z,9.75
2023-04-17T23:02:57.748Z,8.18
2023-04-17T23:05:24.598Z,8.63
2023-04-17T23:07:51.376Z,7.65
2023-04-17T23:10:19.309Z,8.27
2023-04-17T23:12:47.279Z,9.73
2023-04-17T23:15:14.004Z,8.98
2023-04-17T23:17:40.754Z,8.85
2023-04-17T23:20:08.043Z,7.82
2023-04-17T23:22:35.139Z,9.60
2023-04-17T23:25:01.882Z,8.60
2023-04-17T23:27:28.665Z,9.63
2023-04-17T23:29:57.325Z,8.73
2023-04-17T23:32:24.042Z,12.93
2023-04-17T23:34:51.072Z,8.35
2023-04-17T23:37:18.056Z,7.15
2023-04-17T23:39:44.985Z,9.15
2023-04-17T23:42:11.679Z,9.02
2023-04-17T23:44:38.537Z,10.57
2023-04-17T23:47:05.368Z,9.82
2023-04-17T23:49:34.100Z,9.00
2023-04-17T23:52:00.919Z,10.35
2023-04-17T23:54:27.699Z,10.48
2023-04-17T23:56:54.399Z,10.75
2023-04-17T23:59:21.277Z,9.57
